createdAt,value
2022-10-18T00:00:09.430Z,73.00
2022-10-18T00:02:39.073Z,73.00
2022-10-18T00:05:07.317Z,73.00
2022-10-18T00:07:35.190Z,73.40
2022-10-18T00:10:03.302Z,73.50
2022-10-18T00:12:32.894Z,73.20
2022-10-18T00:15:02.361Z,72.90
2022-10-18T00:17:30.566Z,72.90
2022-10-18T00:19:58.695Z,72.80
2022-10-18T00:22:26.565Z,73.00
2022-10-18T00:24:54.431Z,73.00
2022-10-18T00:27:22.301Z,72.90
2022-10-18T00:29:53.690Z,72.90
2022-10-18T00:32:22.969Z,73.00
2022-10-18T00:34:50.860Z,73.50
2022-10-18T00:37:18.765Z,73.50
2022-10-18T00:39:46.677Z,73.40
2022-10-18T00:42:16.312Z,73.30
2022-10-18T00:45:10.998Z,73.30
2022-10-18T00:47:40.231Z,73.90
2022-10-18T00:50:08.729Z,73.70
2022-10-18T00:52:37.920Z,73.30
2022-10-18T00:55:06.690Z,72.70
2022-10-18T00:57:34.578Z,72.30
2022-10-18T01:00:02.579Z,72.10
2022-10-18T01:02:30.844Z,72.20
2022-10-18T01:05:00.296Z,72.20
2022-10-18T01:07:36.410Z,72.50
2022-10-18T01:10:09.745Z,73.10
2022-10-18T01:12:43.566Z,73.00
2022-10-18T01:15:13.723Z,73.00
2022-10-18T01:18:00.647Z,73.00
2022-10-18T01:20:44.802Z,73.10
2022-10-18T01:23:15.337Z,73.60
2022-10-18T01:25:47.834Z,73.60
2022-10-18T01:28:25.409Z,73.30
2022-10-18T01:30:55.984Z,73.40
2022-10-18T01:33:35.646Z,73.80
2022-10-18T01:36:05.697Z,73.90
2022-10-18T01:38:33.697Z,73.60
2022-10-18T01:41:01.745Z,73.00
2022-10-18T01:43:29.719Z,72.50
2022-10-18T01:45:58.954Z,72.10
2022-10-18T01:48:26.803Z,72.00
2022-10-18T01:50:54.981Z,72.10
2022-10-18T01:53:28.735Z,72.40
2022-10-18T01:56:13.308Z,72.90
2022-10-18T01:58:43.159Z,73.00
2022-10-18T02:01:13.397Z,72.90
2022-10-18T02:03:43.584Z,72.90
2022-10-18T02:06:14.251Z,73.10
2022-10-18T02:08:44.041Z,73.70
2022-10-18T02:11:12.564Z,73.50
2022-10-18T02:13:41.834Z,73.40
2022-10-18T02:16:13.113Z,73.30
2022-10-18T02:18:42.398Z,73.40
2022-10-18T02:21:11.655Z,73.80
2022-10-18T02:23:39.579Z,73.70
2022-10-18T02:26:07.495Z,73.30
2022-10-18T02:28:35.375Z,72.70
2022-10-18T02:31:07.575Z,72.30
2022-10-18T02:33:39.141Z,72.30
2022-10-18T02:36:10.295Z,72.20
2022-10-18T02:38:38.199Z,72.30
2022-10-18T02:41:06.300Z,72.60
2022-10-18T02:43:35.372Z,73.10
2022-10-18T02:46:03.289Z,73.90
2022-10-18T02:48:31.286Z,73.10
2022-10-18T02:51:00.524Z,73.00
2022-10-18T02:53:28.400Z,73.50
2022-10-18T02:55:56.271Z,73.60
2022-10-18T02:58:24.329Z,73.50
2022-10-18T03:00:52.270Z,73.30
2022-10-18T03:03:20.120Z,73.40
2022-10-18T03:05:50.243Z,73.70
2022-10-18T03:08:19.546Z,73.90
2022-10-18T03:10:47.502Z,73.50
2022-10-18T03:13:15.440Z,73.00
2022-10-18T03:15:43.331Z,72.40
2022-10-18T03:18:11.417Z,72.00
2022-10-18T03:20:39.292Z,72.00
2022-10-18T03:23:07.360Z,72.00
2022-10-18T03:25:36.586Z,72.20
2022-10-18T03:28:04.490Z,72.60
2022-10-18T03:30:32.360Z,73.00
2022-10-18T03:33:00.251Z,73.10
2022-10-18T03:35:28.120Z,73.00
2022-10-18T03:37:55.981Z,73.00
2022-10-18T03:40:23.885Z,73.40
2022-10-18T03:42:53.153Z,73.60
2022-10-18T03:45:21.022Z,73.50
2022-10-18T03:47:48.879Z,73.40
2022-10-18T03:50:16.863Z,73.40
2022-10-18T03:52:44.747Z,73.60
2022-10-18T03:55:12.646Z,73.90
2022-10-18T03:57:40.520Z,73.60
2022-10-18T04:00:11.386Z,73.00
2022-10-18T04:02:42.486Z,72.50
2022-10-18T04:05:10.887Z,72.10
2022-10-18T04:07:38.789Z,72.00
2022-10-18T04:10:07.514Z,72.20
2022-10-18T04:12:35.398Z,72.40
2022-10-18T04:15:03.295Z,72.70
2022-10-18T04:17:32.856Z,73.00
2022-10-18T04:20:00.938Z,72.90
2022-10-18T04:22:28.803Z,73.00
2022-10-18T04:24:56.806Z,73.00
2022-10-18T04:27:24.974Z,73.10
2022-10-18T04:29:52.859Z,73.70
2022-10-18T04:32:20.751Z,73.70
2022-10-18T04:34:50.012Z,73.50
2022-10-18T04:37:18.254Z,73.50
2022-10-18T04:39:51.176Z,73.50
2022-10-18T04:42:21.494Z,73.90
2022-10-18T04:44:49.417Z,73.80
2022-10-18T04:47:17.460Z,73.30
2022-10-18T04:49:45.391Z,72.90
2022-10-18T04:52:14.622Z,72.90
2022-10-18T04:54:42.476Z,72.80
2022-10-18T04:57:10.397Z,73.00
2022-10-18T04:59:38.290Z,73.00
2022-10-18T05:02:06.170Z,73.00
2022-10-18T05:04:34.286Z,73.00
2022-10-18T05:07:02.809Z,73.10
2022-10-18T05:09:32.014Z,73.50
2022-10-18T05:11:59.931Z,73.50
2022-10-18T05:14:27.883Z,73.50
2022-10-18T05:16:55.756Z,73.40
2022-10-18T05:19:23.621Z,73.60
2022-10-18T05:21:52.045Z,74.00
2022-10-18T05:24:21.926Z,73.80
2022-10-18T05:26:53.444Z,73.40
2022-10-18T05:29:21.456Z,72.90
2022-10-18T05:31:49.524Z,72.50
2022-10-18T05:34:17.438Z,72.20
2022-10-18T05:36:45.316Z,73.00
2022-10-18T05:39:13.181Z,72.40
2022-10-18T05:41:41.054Z,72.60
2022-10-18T05:44:10.866Z,73.20
2022-10-18T05:46:38.752Z,73.20
2022-10-18T05:49:06.626Z,73.10
2022-10-18T05:51:34.524Z,73.30
2022-10-18T05:54:02.465Z,73.20
2022-10-18T05:56:30.392Z,73.70
2022-10-18T05:58:58.299Z,73.70
2022-10-18T06:01:27.556Z,73.60
2022-10-18T06:03:55.412Z,73.50
2022-10-18T06:06:23.285Z,73.60
2022-10-18T06:08:51.359Z,73.90
2022-10-18T06:11:20.124Z,74.10
2022-10-18T06:13:48.770Z,73.70
2022-10-18T06:16:17.521Z,73.20
2022-10-18T06:18:48.665Z,72.60
2022-10-18T06:21:16.666Z,72.30
2022-10-18T06:23:44.532Z,72.20
2022-10-18T06:26:12.491Z,72.30
2022-10-18T06:28:40.464Z,72.50
2022-10-18T06:31:08.521Z,72.80
2022-10-18T06:33:36.747Z,73.20
2022-10-18T06:36:06.989Z,73.20
2022-10-18T06:38:35.239Z,73.10
2022-10-18T06:41:03.462Z,73.20
2022-10-18T06:43:31.336Z,73.30
2022-10-18T06:45:59.190Z,73.70
2022-10-18T06:48:27.057Z,73.70
2022-10-18T06:50:56.764Z,73.50
2022-10-18T06:53:26.061Z,73.50
2022-10-18T06:55:53.931Z,73.70
2022-10-18T06:58:21.830Z,73.90
2022-10-18T07:00:49.707Z,73.80
2022-10-18T07:03:17.579Z,73.40
2022-10-18T07:05:45.423Z,72.80
2022-10-18T07:08:13.318Z,72.90
2022-10-18T07:10:42.558Z,72.20
2022-10-18T07:16:02.682Z,72.40
2022-10-18T07:18:30.563Z,72.60
2022-10-18T07:20:58.433Z,73.10
2022-10-18T07:23:26.292Z,73.90
2022-10-18T07:25:55.547Z,73.10
2022-10-18T07:28:23.571Z,73.10
2022-10-18T07:30:51.485Z,73.50
2022-10-18T07:33:20.554Z,73.60
2022-10-18T07:35:48.519Z,73.60
2022-10-18T07:38:16.404Z,73.40
2022-10-18T07:40:44.319Z,73.50
2022-10-18T07:43:13.568Z,73.90
2022-10-18T07:45:41.479Z,74.00
2022-10-18T07:48:09.368Z,73.50
2022-10-18T07:50:37.726Z,73.00
2022-10-18T07:53:05.628Z,72.40
2022-10-18T07:55:33.482Z,72.20
2022-10-18T07:58:01.460Z,72.30
2022-10-18T08:00:30.687Z,72.30
2022-10-18T08:02:58.754Z,72.40
2022-10-18T08:05:26.929Z,72.90
2022-10-18T08:07:54.954Z,73.20
2022-10-18T08:10:24.081Z,73.30
2022-10-18T08:12:52.034Z,73.10
2022-10-18T08:15:21.737Z,73.20
2022-10-18T08:17:50.965Z,73.30
2022-10-18T08:20:30.551Z,73.70
2022-10-18T08:23:00.489Z,73.70
2022-10-18T08:25:28.811Z,73.50
2022-10-18T08:27:56.710Z,73.50
2022-10-18T08:30:24.667Z,73.70
2022-10-18T08:32:53.893Z,74.00
2022-10-18T08:35:21.816Z,73.80
2022-10-18T08:37:49.720Z,73.30
2022-10-18T08:40:17.682Z,72.80
2022-10-18T08:43:00.032Z,72.30
2022-10-18T08:45:42.019Z,72.20
2022-10-18T08:48:18.045Z,72.30
2022-10-18T08:50:45.936Z,72.40
2022-10-18T08:53:16.175Z,72.80
2022-10-18T08:55:45.929Z,73.20
2022-10-18T08:58:18.203Z,73.30
2022-10-18T09:00:51.039Z,73.20
2022-10-18T09:03:27.246Z,73.20
2022-10-18T09:05:56.979Z,73.30
2022-10-18T09:08:46.286Z,73.80
2022-10-18T09:11:22.594Z,73.80
2022-10-18T09:14:13.695Z,73.60
2022-10-18T09:16:45.646Z,73.60
2022-10-18T09:19:20.113Z,73.80
2022-10-18T09:21:51.446Z,74.10
2022-10-18T09:24:23.219Z,73.90
2022-10-18T09:26:51.313Z,73.50
2022-10-18T09:29:31.352Z,72.90
2022-10-18T09:32:03.685Z,72.50
2022-10-18T09:34:36.761Z,72.50
2022-10-18T09:37:04.805Z,72.50
2022-10-18T09:39:33.544Z,72.70
2022-10-18T09:42:02.753Z,73.20
2022-10-18T09:44:32.836Z,73.30
2022-10-18T09:47:02.511Z,73.30
2022-10-18T09:49:31.937Z,73.30
2022-10-18T09:52:01.987Z,73.30
2022-10-18T09:54:32.541Z,73.70
2022-10-18T09:57:03.821Z,73.80
2022-10-18T09:59:35.685Z,73.80
2022-10-18T10:02:03.645Z,73.70
2022-10-18T10:04:31.687Z,73.60
2022-10-18T10:07:02.427Z,73.80
2022-10-18T10:09:31.177Z,74.10
2022-10-18T10:11:59.110Z,73.90
2022-10-18T10:14:28.724Z,73.50
2022-10-18T10:16:57.585Z,72.80
2022-10-18T10:19:30.003Z,72.40
2022-10-18T10:22:01.997Z,72.20
2022-10-18T10:24:40.767Z,72.40
2022-10-18T10:27:14.577Z,72.50
2022-10-18T10:29:51.387Z,72.80
2022-10-18T10:32:21.479Z,73.20
2022-10-18T10:34:50.864Z,73.30
2022-10-18T10:37:28.005Z,73.30
2022-10-18T10:40:19.257Z,73.30
2022-10-18T10:43:13.200Z,73.70
2022-10-18T10:46:02.305Z,73.80
2022-10-18T10:48:33.586Z,73.80
2022-10-18T10:51:03.853Z,73.60
2022-10-18T10:54:00.926Z,73.60
2022-10-18T10:56:29.673Z,74.10
2022-10-18T10:58:59.194Z,74.00
2022-10-18T11:01:29.375Z,73.70
2022-10-18T11:03:58.943Z,73.00
2022-10-18T11:06:43.081Z,72.60
2022-10-18T11:09:20.662Z,72.40
2022-10-18T11:11:54.212Z,72.40
2022-10-18T11:14:26.625Z,72.50
2022-10-18T11:16:57.746Z,72.90
2022-10-18T11:19:33.158Z,73.40
2022-10-18T11:22:01.503Z,73.40
2022-10-18T11:24:30.790Z,73.30
2022-10-18T11:26:59.649Z,73.30
2022-10-18T11:29:36.592Z,73.60
2022-10-18T11:32:10.410Z,74.00
2022-10-18T11:34:49.697Z,73.80
2022-10-18T11:37:30.038Z,73.40
2022-10-18T11:40:05.004Z,73.00
2022-10-18T11:42:39.704Z,72.90
2022-10-18T11:45:12.930Z,73.20
2022-10-18T11:47:44.762Z,73.20
2022-10-18T11:50:17.189Z,73.20
2022-10-18T11:52:49.823Z,73.10
2022-10-18T11:55:33.387Z,73.20
2022-10-18T11:58:04.988Z,73.50
2022-10-18T12:00:42.241Z,73.70
2022-10-18T12:03:25.194Z,73.70
2022-10-18T12:05:53.763Z,73.70
2022-10-18T12:08:24.227Z,73.70
2022-10-18T12:11:09.726Z,73.80
2022-10-18T12:13:40.361Z,74.10
2022-10-18T12:16:08.957Z,73.80
2022-10-18T12:18:37.055Z,73.40
2022-10-18T12:21:05.138Z,72.70
2022-10-18T12:23:39.153Z,72.70
2022-10-18T12:26:09.046Z,72.40
2022-10-18T12:28:42.432Z,72.60
2022-10-18T12:31:16.074Z,72.80
2022-10-18T12:33:45.355Z,73.30
2022-10-18T12:36:19.851Z,73.30
2022-10-18T12:38:48.980Z,73.40
2022-10-18T12:41:20.534Z,73.30
2022-10-18T12:43:52.423Z,73.50
2022-10-18T12:46:20.351Z,74.00
2022-10-18T12:48:51.607Z,73.80
2022-10-18T12:51:20.218Z,73.90
2022-10-18T12:53:48.664Z,73.80
2022-10-18T12:56:37.880Z,73.80
2022-10-18T12:59:39.197Z,74.30
2022-10-18T13:02:20.625Z,74.00
2022-10-18T13:04:48.958Z,73.50
2022-10-18T13:07:34.190Z,72.80
2022-10-18T13:10:35.806Z,72.60
2022-10-18T13:13:38.581Z,72.40
2022-10-18T13:16:11.070Z,72.70
2022-10-18T13:18:49.372Z,73.00
2022-10-18T13:21:20.227Z,73.40
2022-10-18T13:24:21.025Z,73.40
2022-10-18T13:27:04.077Z,73.40
2022-10-18T13:30:15.798Z,73.50
2022-10-18T13:32:48.437Z,74.00
2022-10-18T13:35:49.849Z,74.00
2022-10-18T13:38:31.816Z,73.90
2022-10-18T13:41:03.474Z,73.80
2022-10-18T13:44:20.273Z,73.90
2022-10-18T13:47:12.457Z,74.40
2022-10-18T13:50:16.794Z,74.00
2022-10-18T13:53:10.541Z,73.40
2022-10-18T13:55:45.653Z,72.80
2022-10-18T13:58:16.625Z,72.60
2022-10-18T14:00:53.462Z,72.50
2022-10-18T14:06:28.420Z,72.90
2022-10-18T14:08:59.082Z,73.50
2022-10-18T14:11:30.840Z,73.50
2022-10-18T14:14:02.725Z,73.50
2022-10-18T14:16:34.788Z,73.50
2022-10-18T14:19:09.571Z,73.70
2022-10-18T14:21:39.184Z,74.10
2022-10-18T14:24:14.018Z,74.00
2022-10-18T14:26:41.934Z,73.60
2022-10-18T14:29:17.916Z,73.30
2022-10-18T14:31:52.054Z,73.30
2022-10-18T14:34:21.295Z,73.50
2022-10-18T14:36:49.522Z,73.50
2022-10-18T14:39:19.962Z,73.50
2022-10-18T14:41:51.691Z,73.40
2022-10-18T14:44:21.211Z,73.60
2022-10-18T14:46:50.192Z,74.00
2022-10-18T14:49:18.548Z,73.90
2022-10-18T14:51:48.517Z,73.80
2022-10-18T14:54:17.130Z,73.70
2022-10-18T14:56:45.011Z,73.80
2022-10-18T14:59:15.578Z,74.30
2022-10-18T15:01:44.475Z,74.20
2022-10-18T15:04:12.442Z,73.70
2022-10-18T15:06:43.542Z,73.30
2022-10-18T15:09:12.789Z,72.70
2022-10-18T15:11:41.284Z,72.50
2022-10-18T15:14:12.272Z,72.50
2022-10-18T15:16:40.221Z,72.70
2022-10-18T15:19:08.918Z,72.90
2022-10-18T15:21:36.888Z,73.40
2022-10-18T15:24:22.608Z,73.40
2022-10-18T15:26:50.513Z,74.20
2022-10-18T15:29:19.509Z,73.40
2022-10-18T15:31:47.604Z,73.60
2022-10-18T15:34:17.599Z,74.10
2022-10-18T15:36:45.717Z,74.00
2022-10-18T15:39:16.739Z,73.90
2022-10-18T15:41:50.056Z,73.80
2022-10-18T15:44:25.907Z,73.80
2022-10-18T15:46:55.318Z,74.20
2022-10-18T15:49:58.087Z,74.20
2022-10-18T15:52:38.878Z,73.70
2022-10-18T15:55:56.197Z,73.10
2022-10-18T15:58:26.539Z,72.60
2022-10-18T16:00:55.435Z,72.50
2022-10-18T16:03:23.964Z,72.60
2022-10-18T16:05:54.275Z,72.70
2022-10-18T16:08:23.510Z,73.20
2022-10-18T16:10:51.670Z,73.40
2022-10-18T16:13:19.610Z,73.50
2022-10-18T16:15:48.850Z,73.50
2022-10-18T16:18:18.202Z,73.50
2022-10-18T16:20:46.493Z,73.70
2022-10-18T16:23:19.611Z,74.10
2022-10-18T16:25:47.633Z,73.90
2022-10-18T16:28:16.749Z,73.50
2022-10-18T16:30:46.060Z,73.10
2022-10-18T16:33:19.211Z,72.90
2022-10-18T16:35:49.712Z,73.00
2022-10-18T16:38:23.277Z,73.40
2022-10-18T16:40:51.148Z,73.30
2022-10-18T16:43:19.044Z,73.40
2022-10-18T16:45:47.032Z,73.30
2022-10-18T16:48:16.854Z,73.50
2022-10-18T16:50:44.821Z,73.90
2022-10-18T16:53:12.693Z,73.90
2022-10-18T16:55:40.910Z,73.80
2022-10-18T16:58:08.858Z,73.70
2022-10-18T17:00:36.736Z,73.90
2022-10-18T17:03:04.729Z,74.30
2022-10-18T17:05:34.011Z,74.90
2022-10-18T17:08:02.089Z,73.80
2022-10-18T17:10:29.987Z,73.20
2022-10-18T17:12:57.888Z,72.70
2022-10-18T17:15:25.771Z,72.40
2022-10-18T17:17:53.665Z,72.50
2022-10-18T17:20:22.835Z,72.70
2022-10-18T17:22:52.106Z,72.90
2022-10-18T17:25:20.102Z,73.40
2022-10-18T17:27:48.062Z,73.40
2022-10-18T17:30:17.763Z,73.50
2022-10-18T17:32:45.606Z,73.50
2022-10-18T17:35:13.514Z,73.60
2022-10-18T17:37:44.084Z,74.10
2022-10-18T17:40:15.405Z,74.10
2022-10-18T17:42:43.292Z,74.10
2022-10-18T17:45:12.266Z,74.00
2022-10-18T17:47:40.169Z,74.00
2022-10-18T17:50:08.917Z,74.30
2022-10-18T17:52:36.861Z,74.30
2022-10-18T17:55:05.118Z,74.00
2022-10-18T17:57:34.639Z,73.50
2022-10-18T18:00:03.119Z,72.90
2022-10-18T18:02:41.840Z,72.70
2022-10-18T18:05:10.560Z,72.70
2022-10-18T18:07:38.457Z,72.90
2022-10-18T18:10:07.160Z,73.10
2022-10-18T18:12:36.498Z,73.50
2022-10-18T18:15:04.736Z,73.60
2022-10-18T18:17:34.468Z,73.60
2022-10-18T18:20:08.617Z,73.50
2022-10-18T18:22:40.351Z,73.70
2022-10-18T18:25:10.705Z,74.20
2022-10-18T18:27:39.990Z,74.20
2022-10-18T18:30:08.819Z,74.10
2022-10-18T18:32:40.275Z,74.00
2022-10-18T18:35:08.741Z,73.90
2022-10-18T18:37:36.610Z,74.40
2022-10-18T18:40:04.733Z,74.40
2022-10-18T18:42:33.402Z,74.00
2022-10-18T18:45:02.772Z,73.30
2022-10-18T18:47:35.228Z,72.80
2022-10-18T18:50:03.226Z,72.60
2022-10-18T18:52:31.416Z,72.50
2022-10-18T18:54:59.443Z,72.70
2022-10-18T18:57:27.334Z,72.90
2022-10-18T18:59:55.180Z,73.40
2022-10-18T19:02:24.393Z,73.50
2022-10-18T19:04:52.291Z,73.60
2022-10-18T19:07:20.157Z,73.50
2022-10-18T19:09:50.511Z,73.50
2022-10-18T19:12:20.610Z,73.90
2022-10-18T19:14:49.351Z,74.20
2022-10-18T19:17:17.373Z,73.90
2022-10-18T19:19:46.658Z,73.50
2022-10-18T19:22:14.526Z,73.20
2022-10-18T19:24:42.379Z,73.20
2022-10-18T19:27:12.338Z,73.50
2022-10-18T19:29:41.564Z,73.40
2022-10-18T19:32:11.915Z,73.30
2022-10-18T19:34:39.871Z,73.40
2022-10-18T19:37:09.931Z,73.30
2022-10-18T19:39:37.873Z,73.70
2022-10-18T19:42:06.762Z,73.80
2022-10-18T19:44:35.848Z,73.80
2022-10-18T19:47:04.039Z,73.70
2022-10-18T19:49:31.936Z,73.70
2022-10-18T19:51:59.926Z,74.00
2022-10-18T19:54:29.383Z,74.20
2022-10-18T19:56:57.326Z,73.90
2022-10-18T19:59:25.270Z,73.40
2022-10-18T20:01:53.246Z,72.80
2022-10-18T20:04:21.130Z,72.50
2022-10-18T20:06:49.008Z,72.50
2022-10-18T20:09:19.562Z,72.70
2022-10-18T20:11:50.011Z,72.80
2022-10-18T20:14:17.887Z,73.20
2022-10-18T20:16:45.762Z,73.30
2022-10-18T20:19:13.643Z,73.40
2022-10-18T20:21:41.545Z,73.40
2022-10-18T20:24:09.824Z,73.60
2022-10-18T20:26:37.712Z,73.90
2022-10-18T20:29:07.784Z,74.00
2022-10-18T20:31:38.916Z,74.00
2022-10-18T20:34:08.321Z,73.90
2022-10-18T20:36:36.273Z,73.90
2022-10-18T20:39:04.836Z,74.30
2022-10-18T20:41:33.693Z,74.20
2022-10-18T20:44:02.420Z,73.70
2022-10-18T20:46:32.985Z,73.20
2022-10-18T20:49:00.906Z,72.70
2022-10-18T20:51:28.953Z,72.40
2022-10-18T20:53:56.886Z,72.60
2022-10-18T20:56:26.417Z,72.70
2022-10-18T20:58:55.447Z,72.90
2022-10-18T21:01:24.209Z,73.40
2022-10-18T21:03:54.446Z,73.50
2022-10-18T21:06:23.252Z,73.50
2022-10-18T21:08:53.691Z,73.60
2022-10-18T21:11:21.663Z,73.60
2022-10-18T21:13:51.780Z,74.00
2022-10-18T21:16:19.627Z,74.20
2022-10-18T21:18:47.478Z,73.70
2022-10-18T21:21:17.651Z,73.20
2022-10-18T21:23:45.508Z,72.70
2022-10-18T21:26:15.088Z,72.50
2022-10-18T21:28:42.991Z,72.60
2022-10-18T21:31:12.645Z,72.70
2022-10-18T21:33:40.710Z,73.00
2022-10-18T21:36:08.812Z,73.40
2022-10-18T21:38:38.060Z,73.50
2022-10-18T21:41:09.010Z,73.60
2022-10-18T21:43:36.864Z,73.50
2022-10-18T21:46:04.766Z,73.70
2022-10-18T21:48:32.646Z,74.10
2022-10-18T21:51:03.631Z,74.10
2022-10-18T21:53:31.530Z,74.00
2022-10-18T21:56:06.741Z,74.00
2022-10-18T21:58:34.934Z,74.00
2022-10-18T22:01:02.886Z,74.40
2022-10-18T22:03:30.807Z,74.20
2022-10-18T22:06:01.103Z,73.70
2022-10-18T22:08:29.139Z,73.30
2022-10-18T22:10:57.865Z,73.20
2022-10-18T22:13:27.413Z,73.20
2022-10-18T22:15:55.307Z,73.40
2022-10-18T22:18:23.276Z,73.20
2022-10-18T22:20:56.970Z,73.30
2022-10-18T22:23:24.949Z,73.30
2022-10-18T22:25:52.835Z,73.50
2022-10-18T22:28:20.703Z,73.90
2022-10-18T22:30:49.958Z,73.70
2022-10-18T22:33:17.838Z,73.80
2022-10-18T22:35:50.036Z,73.80
2022-10-18T22:38:17.961Z,74.00
2022-10-18T22:40:45.837Z,74.30
2022-10-18T22:43:13.850Z,74.10
2022-10-18T22:45:41.768Z,73.60
2022-10-18T22:48:11.012Z,73.10
2022-10-18T22:50:38.932Z,72.70
2022-10-18T22:53:06.818Z,72.60
2022-10-18T22:55:34.703Z,72.70
2022-10-18T22:58:02.572Z,72.80
2022-10-18T23:00:30.542Z,73.00
2022-10-18T23:02:58.462Z,73.70
2022-10-18T23:05:27.740Z,73.70
2022-10-18T23:07:55.658Z,73.70
2022-10-18T23:10:23.535Z,73.60
2022-10-18T23:12:51.414Z,73.70
2022-10-18T23:15:19.318Z,74.10
2022-10-18T23:17:47.800Z,74.90
2022-10-18T23:20:15.850Z,73.90
2022-10-18T23:22:45.076Z,73.40
2022-10-18T23:25:12.946Z,73.10
2022-10-18T23:27:40.865Z,73.90
2022-10-18T23:30:09.954Z,73.30
2022-10-18T23:32:38.662Z,73.20
2022-10-18T23:35:07.215Z,73.20
2022-10-18T23:37:35.442Z,73.30
2022-10-18T23:40:05.417Z,73.40
2022-10-18T23:42:33.295Z,73.90
2022-10-18T23:45:01.137Z,73.90
2022-10-18T23:47:29.095Z,73.80
2022-10-18T23:49:58.811Z,73.80
2022-10-18T23:52:26.685Z,73.90
2022-10-18T23:54:54.567Z,74.30
2022-10-18T23:57:23.826Z,74.30
2022-10-18T23:59:51.778Z,73.70
